Ravia, Oklahoma
Current Conditions -  °F | °C
As of 10:55 AM on Friday 24 Oct 2014 (Local Time) from KADM Reporting Station
Clear Clear  
Wind Chill: 72°   Ceiling: Unl
Heat Index: 72°   Visibility: 10mi
Dew Point: 61°   Wind: 8mph
Humidity: 69%   Direction: 170°S
Pressure: 30.15"   Gusts: NA
Location:  34.24°N, 96.75°W
Report Text: KADM 241555Z 17007KT 10SM SKC 22/16 A3015
Loading
Personal Weather Stations






























Interactive Weather Map
Tropical Storm Tracking
New forecast layout! Learn more

10-Day Weather Forecast

Advertisements
Track Severe Weather on mobile